createdAt,value
2023-04-18T17:18:25.964Z,51.4
2023-04-18T17:19:31.497Z,51.3
2023-04-18T17:20:36.909Z,51.23
2023-04-18T17:21:42.154Z,51.18
2023-04-18T17:22:49.848Z,51.14
2023-04-18T17:23:55.076Z,51.13
2023-04-18T17:25:00.321Z,51.11
2023-04-18T17:26:05.539Z,51.1
2023-04-18T17:27:10.771Z,51.06
2023-04-18T17:28:15.976Z,51.05
2023-04-18T17:29:21.570Z,51.03
2023-04-18T17:30:26.829Z,51.02
2023-04-18T17:31:32.313Z,50.99
2023-04-18T17:32:37.813Z,50.97
2023-04-18T17:33:43.065Z,50.96
2023-04-18T17:34:48.421Z,50.94
2023-04-18T17:35:53.608Z,50.9
2023-04-18T17:36:58.790Z,50.88
2023-04-18T17:38:04.055Z,50.87
2023-04-18T17:39:09.418Z,50.85
2023-04-18T17:40:14.633Z,50.82
2023-04-18T17:41:20.408Z,50.79
2023-04-18T17:42:25.599Z,50.79
2023-04-18T17:43:30.909Z,50.76
2023-04-18T17:44:36.099Z,50.75
2023-04-18T17:45:41.520Z,50.73
2023-04-18T17:46:48.818Z,50.65
2023-04-18T17:47:55.259Z,50.59
2023-04-18T17:49:00.462Z,50.59
2023-04-18T17:50:05.649Z,50.58
2023-04-18T17:51:10.913Z,50.53
2023-04-18T17:52:16.071Z,50.45
2023-04-18T17:53:21.261Z,50.41
2023-04-18T17:54:26.505Z,50.31
2023-04-18T17:55:31.960Z,50.29
2023-04-18T17:56:39.696Z,50.32
2023-04-18T17:57:45.050Z,50.35
2023-04-18T17:58:52.609Z,50.36
2023-04-18T17:59:58.618Z,50.36
2023-04-18T18:01:04.136Z,50.35
2023-04-18T18:02:09.636Z,50.36
2023-04-18T18:03:15.551Z,50.35
2023-04-18T18:04:22.398Z,50.32
2023-04-18T18:05:29.477Z,50.31
2023-04-18T18:06:34.783Z,50.3
2023-04-18T18:07:41.060Z,50.29
2023-04-18T18:08:51.121Z,50.24
2023-04-18T18:09:56.787Z,50.24
2023-04-18T18:11:05.268Z,50.21
2023-04-18T18:12:10.478Z,50.19
2023-04-18T18:13:15.909Z,50.17
2023-04-18T18:14:21.466Z,50.15
2023-04-18T18:15:26.876Z,50.12
2023-04-18T18:16:32.449Z,50.11
2023-04-18T18:17:38.011Z,50.12
2023-04-18T18:18:43.343Z,50.09
2023-04-18T18:19:48.521Z,50.09
2023-04-18T18:20:53.724Z,50.04
2023-04-18T18:21:59.093Z,49.99
2023-04-18T18:23:04.344Z,49.84
2023-04-18T18:24:09.533Z,49.8
2023-04-18T18:25:14.731Z,49.75
2023-04-18T18:26:20.046Z,49.68
2023-04-18T18:27:25.479Z,49.77
2023-04-18T18:28:30.805Z,49.82
